sensor_id;sensor_type;location;lat;lon;timestamp;temperature;humidity
11559;DHT22;5835;42.930;25.178;2022-08-24T00:00:24;18.90;99.90
11559;DHT22;5835;42.930;25.178;2022-08-24T00:02:52;18.80;99.90
11559;DHT22;5835;42.930;25.178;2022-08-24T00:05:20;18.90;99.90
11559;DHT22;5835;42.930;25.178;2022-08-24T00:07:48;18.90;99.90
11559;DHT22;5835;42.930;25.178;2022-08-24T00:10:19;18.90;99.90
11559;DHT22;5835;42.930;25.178;2022-08-24T00:12:47;18.90;99.90
11559;DHT22;5835;42.930;25.178;2022-08-24T00:15:15;18.90;99.90
11559;DHT22;5835;42.930;25.178;2022-08-24T00:17:43;18.90;99.90
11559;DHT22;5835;42.930;25.178;2022-08-24T00:20:12;18.90;99.90
11559;DHT22;5835;42.930;25.178;2022-08-24T00:22:40;18.90;99.90
11559;DHT22;5835;42.930;25.178;2022-08-24T00:25:09;18.90;99.90
11559;DHT22;5835;42.930;25.178;2022-08-24T00:27:39;18.90;99.90
11559;DHT22;5835;42.930;25.178;2022-08-24T00:30:10;19.00;99.90
11559;DHT22;5835;42.930;25.178;2022-08-24T00:32:40;18.80;99.90
11559;DHT22;5835;42.930;25.178;2022-08-24T00:35:08;18.80;99.90
11559;DHT22;5835;42.930;25.178;2022-08-24T00:37:36;18.80;99.90
11559;DHT22;5835;42.930;25.178;2022-08-24T00:40:05;18.70;99.90
11559;DHT22;5835;42.930;25.178;2022-08-24T00:42:33;18.80;99.90
11559;DHT22;5835;42.930;25.178;2022-08-24T00:45:03;18.70;99.90
11559;DHT22;5835;42.930;25.178;2022-08-24T00:47:38;18.70;99.90
11559;DHT22;5835;42.930;25.178;2022-08-24T00:50:09;18.60;99.90
11559;DHT22;5835;42.930;25.178;2022-08-24T00:52:39;18.60;99.90
11559;DHT22;5835;42.930;25.178;2022-08-24T00:55:11;18.50;99.90
11559;DHT22;5835;42.930;25.178;2022-08-24T00:57:41;18.40;99.90
11559;DHT22;5835;42.930;25.178;2022-08-24T01:00:15;18.50;99.90
11559;DHT22;5835;42.930;25.178;2022-08-24T01:02:45;18.40;99.90
11559;DHT22;5835;42.930;25.178;2022-08-24T01:05:14;18.40;99.90
11559;DHT22;5835;42.930;25.178;2022-08-24T01:07:44;18.40;99.90
11559;DHT22;5835;42.930;25.178;2022-08-24T01:10:16;18.40;99.90
11559;DHT22;5835;42.930;25.178;2022-08-24T01:12:47;18.50;99.90
11559;DHT22;5835;42.930;25.178;2022-08-24T01:15:17;18.50;99.90
11559;DHT22;5835;42.930;25.178;2022-08-24T01:17:48;18.50;99.90
11559;DHT22;5835;42.930;25.178;2022-08-24T01:20:33;18.50;99.90
11559;DHT22;5835;42.930;25.178;2022-08-24T01:23:06;18.30;99.90
11559;DHT22;5835;42.930;25.178;2022-08-24T01:25:37;18.30;99.90
11559;DHT22;5835;42.930;25.178;2022-08-24T01:28:07;18.30;99.90
11559;DHT22;5835;42.930;25.178;2022-08-24T01:30:36;18.30;99.90
11559;DHT22;5835;42.930;25.178;2022-08-24T01:33:05;18.50;99.90
11559;DHT22;5835;42.930;25.178;2022-08-24T01:35:36;18.60;99.90
11559;DHT22;5835;42.930;25.178;2022-08-24T01:38:07;18.60;99.90
11559;DHT22;5835;42.930;25.178;2022-08-24T01:40:41;18.60;99.90
11559;DHT22;5835;42.930;25.178;2022-08-24T01:43:10;18.60;99.90
11559;DHT22;5835;42.930;25.178;2022-08-24T01:45:40;18.60;99.90
11559;DHT22;5835;42.930;25.178;2022-08-24T01:48:07;18.60;99.90
11559;DHT22;5835;42.930;25.178;2022-08-24T01:50:36;18.60;99.90
11559;DHT22;5835;42.930;25.178;2022-08-24T01:53:06;18.70;99.90
11559;DHT22;5835;42.930;25.178;2022-08-24T01:55:34;18.70;99.90
11559;DHT22;5835;42.930;25.178;2022-08-24T01:58:04;18.80;99.90
11559;DHT22;5835;42.930;25.178;2022-08-24T02:00:34;18.70;99.90
11559;DHT22;5835;42.930;25.178;2022-08-24T02:03:02;18.70;99.90
11559;DHT22;5835;42.930;25.178;2022-08-24T02:05:30;18.60;99.90
11559;DHT22;5835;42.930;25.178;2022-08-24T02:07:58;18.60;99.90
11559;DHT22;5835;42.930;25.178;2022-08-24T02:10:25;18.60;99.90
11559;DHT22;5835;42.930;25.178;2022-08-24T02:12:53;18.70;99.90
11559;DHT22;5835;42.930;25.178;2022-08-24T02:15:28;18.70;99.90
11559;DHT22;5835;42.930;25.178;2022-08-24T02:17:56;18.70;99.90
11559;DHT22;5835;42.930;25.178;2022-08-24T02:20:25;18.70;99.90
11559;DHT22;5835;42.930;25.178;2022-08-24T02:22:53;18.70;99.90
11559;DHT22;5835;42.930;25.178;2022-08-24T02:25:22;18.70;99.90
11559;DHT22;5835;42.930;25.178;2022-08-24T02:27:50;18.60;99.90
11559;DHT22;5835;42.930;25.178;2022-08-24T02:30:18;18.80;99.90
11559;DHT22;5835;42.930;25.178;2022-08-24T02:32:47;18.90;99.90
11559;DHT22;5835;42.930;25.178;2022-08-24T02:35:16;18.90;99.90
11559;DHT22;5835;42.930;25.178;2022-08-24T02:37:43;18.90;99.90
11559;DHT22;5835;42.930;25.178;2022-08-24T02:40:11;18.90;99.90
11559;DHT22;5835;42.930;25.178;2022-08-24T02:42:39;18.90;99.90
11559;DHT22;5835;42.930;25.178;2022-08-24T02:45:08;18.90;99.90
11559;DHT22;5835;42.930;25.178;2022-08-24T02:47:35;18.80;99.90
11559;DHT22;5835;42.930;25.178;2022-08-24T02:50:07;18.80;99.90
11559;DHT22;5835;42.930;25.178;2022-08-24T02:52:36;18.80;99.90
11559;DHT22;5835;42.930;25.178;2022-08-24T02:55:06;18.80;99.90
11559;DHT22;5835;42.930;25.178;2022-08-24T02:57:34;18.80;99.90
11559;DHT22;5835;42.930;25.178;2022-08-24T03:00:03;18.80;99.90
11559;DHT22;5835;42.930;25.178;2022-08-24T03:02:31;18.80;99.90
11559;DHT22;5835;42.930;25.178;2022-08-24T03:04:58;18.80;99.90
11559;DHT22;5835;42.930;25.178;2022-08-24T03:07:28;18.80;99.90
11559;DHT22;5835;42.930;25.178;2022-08-24T03:09:55;18.90;99.90
11559;DHT22;5835;42.930;25.178;2022-08-24T03:12:23;18.90;99.90
11559;DHT22;5835;42.930;25.178;2022-08-24T03:14:51;18.90;99.90
11559;DHT22;5835;42.930;25.178;2022-08-24T03:17:19;18.90;99.90
11559;DHT22;5835;42.930;25.178;2022-08-24T03:19:46;19.10;99.90
11559;DHT22;5835;42.930;25.178;2022-08-24T03:22:14;19.40;99.90
11559;DHT22;5835;42.930;25.178;2022-08-24T03:24:43;19.30;99.90
11559;DHT22;5835;42.930;25.178;2022-08-24T03:27:10;19.40;99.90
11559;DHT22;5835;42.930;25.178;2022-08-24T03:29:39;19.60;99.90
11559;DHT22;5835;42.930;25.178;2022-08-24T03:32:07;19.80;99.90
11559;DHT22;5835;42.930;25.178;2022-08-24T03:34:35;20.40;99.90
11559;DHT22;5835;42.930;25.178;2022-08-24T03:37:03;20.70;99.90
11559;DHT22;5835;42.930;25.178;2022-08-24T03:39:31;20.40;99.90
11559;DHT22;5835;42.930;25.178;2022-08-24T03:42:01;20.30;99.90
11559;DHT22;5835;42.930;25.178;2022-08-24T03:44:28;20.40;99.90
11559;DHT22;5835;42.930;25.178;2022-08-24T03:46:56;20.60;99.90
11559;DHT22;5835;42.930;25.178;2022-08-24T03:49:24;20.70;99.90
11559;DHT22;5835;42.930;25.178;2022-08-24T03:51:53;20.90;99.90
11559;DHT22;5835;42.930;25.178;2022-08-24T03:54:20;21.10;99.90
11559;DHT22;5835;42.930;25.178;2022-08-24T03:56:48;20.80;99.90
11559;DHT22;5835;42.930;25.178;2022-08-24T03:59:17;20.90;99.90
11559;DHT22;5835;42.930;25.178;2022-08-24T04:01:45;21.10;99.90
11559;DHT22;5835;42.930;25.178;2022-08-24T04:04:12;20.80;99.90
11559;DHT22;5835;42.930;25.178;2022-08-24T04:06:40;20.90;99.90
11559;DHT22;5835;42.930;25.178;2022-08-24T04:09:11;21.20;99.90
11559;DHT22;5835;42.930;25.178;2022-08-24T04:11:39;21.30;99.90
11559;DHT22;5835;42.930;25.178;2022-08-24T04:14:11;20.70;99.90
11559;DHT22;5835;42.930;25.178;2022-08-24T04:16:42;21.00;99.90
11559;DHT22;5835;42.930;25.178;2022-08-24T04:19:11;20.90;99.90
11559;DHT22;5835;42.930;25.178;2022-08-24T04:21:39;20.50;99.90
11559;DHT22;5835;42.930;25.178;2022-08-24T04:24:10;20.10;99.90
11559;DHT22;5835;42.930;25.178;2022-08-24T04:26:39;20.00;99.90
11559;DHT22;5835;42.930;25.178;2022-08-24T04:29:09;19.90;99.90
11559;DHT22;5835;42.930;25.178;2022-08-24T04:31:39;19.80;99.90
11559;DHT22;5835;42.930;25.178;2022-08-24T04:34:09;19.60;99.90
11559;DHT22;5835;42.930;25.178;2022-08-24T04:36:39;19.50;99.90
11559;DHT22;5835;42.930;25.178;2022-08-24T04:39:07;19.30;99.90
11559;DHT22;5835;42.930;25.178;2022-08-24T04:41:35;19.60;99.90
11559;DHT22;5835;42.930;25.178;2022-08-24T04:44:03;19.60;99.90
11559;DHT22;5835;42.930;25.178;2022-08-24T04:46:31;19.60;99.90
11559;DHT22;5835;42.930;25.178;2022-08-24T04:49:00;19.60;99.90
11559;DHT22;5835;42.930;25.178;2022-08-24T04:51:28;19.50;99.90
11559;DHT22;5835;42.930;25.178;2022-08-24T04:53:56;19.70;99.90
11559;DHT22;5835;42.930;25.178;2022-08-24T04:56:24;19.70;99.90
11559;DHT22;5835;42.930;25.178;2022-08-24T04:58:53;19.80;99.90
11559;DHT22;5835;42.930;25.178;2022-08-24T05:01:22;19.70;99.90
11559;DHT22;5835;42.930;25.178;2022-08-24T05:03:52;19.70;99.90
11559;DHT22;5835;42.930;25.178;2022-08-24T05:06:22;19.70;99.90
11559;DHT22;5835;42.930;25.178;2022-08-24T05:08:51;19.60;99.90
11559;DHT22;5835;42.930;25.178;2022-08-24T05:11:20;19.50;99.90
11559;DHT22;5835;42.930;25.178;2022-08-24T05:13:50;19.50;99.90
11559;DHT22;5835;42.930;25.178;2022-08-24T05:16:18;19.50;99.90
11559;DHT22;5835;42.930;25.178;2022-08-24T05:18:46;19.60;99.90
11559;DHT22;5835;42.930;25.178;2022-08-24T05:21:16;19.80;99.90
11559;DHT22;5835;42.930;25.178;2022-08-24T05:23:44;19.90;99.90
11559;DHT22;5835;42.930;25.178;2022-08-24T05:26:15;19.90;99.90
11559;DHT22;5835;42.930;25.178;2022-08-24T05:28:44;19.90;99.90
11559;DHT22;5835;42.930;25.178;2022-08-24T05:31:14;19.90;99.90
11559;DHT22;5835;42.930;25.178;2022-08-24T05:33:41;19.80;99.90
11559;DHT22;5835;42.930;25.178;2022-08-24T05:36:15;19.80;99.90
11559;DHT22;5835;42.930;25.178;2022-08-24T05:38:43;19.90;99.90
11559;DHT22;5835;42.930;25.178;2022-08-24T05:41:10;20.00;99.90
11559;DHT22;5835;42.930;25.178;2022-08-24T05:43:40;20.10;99.90
11559;DHT22;5835;42.930;25.178;2022-08-24T05:46:08;20.30;99.90
11559;DHT22;5835;42.930;25.178;2022-08-24T05:48:36;20.40;99.90
11559;DHT22;5835;42.930;25.178;2022-08-24T05:51:05;20.30;99.90
11559;DHT22;5835;42.930;25.178;2022-08-24T05:53:33;20.30;99.90
11559;DHT22;5835;42.930;25.178;2022-08-24T05:56:02;20.30;99.90
11559;DHT22;5835;42.930;25.178;2022-08-24T05:58:30;20.40;99.90
11559;DHT22;5835;42.930;25.178;2022-08-24T06:01:03;20.40;99.90
11559;DHT22;5835;42.930;25.178;2022-08-24T06:03:31;20.50;99.90
11559;DHT22;5835;42.930;25.178;2022-08-24T06:06:00;20.40;99.90
11559;DHT22;5835;42.930;25.178;2022-08-24T06:08:28;20.30;99.90
11559;DHT22;5835;42.930;25.178;2022-08-24T06:10:56;20.30;99.90
11559;DHT22;5835;42.930;25.178;2022-08-24T06:13:26;20.20;99.90
11559;DHT22;5835;42.930;25.178;2022-08-24T06:16:04;20.10;99.90
11559;DHT22;5835;42.930;25.178;2022-08-24T06:18:32;20.10;99.90
11559;DHT22;5835;42.930;25.178;2022-08-24T06:21:04;20.10;99.90
11559;DHT22;5835;42.930;25.178;2022-08-24T06:23:32;20.20;99.90
11559;DHT22;5835;42.930;25.178;2022-08-24T06:25:59;20.10;99.90
11559;DHT22;5835;42.930;25.178;2022-08-24T06:28:45;20.20;99.90
11559;DHT22;5835;42.930;25.178;2022-08-24T06:31:14;20.30;99.90
11559;DHT22;5835;42.930;25.178;2022-08-24T06:33:41;20.40;99.90
11559;DHT22;5835;42.930;25.178;2022-08-24T06:36:09;20.40;99.90
11559;DHT22;5835;42.930;25.178;2022-08-24T06:38:37;20.50;99.90
11559;DHT22;5835;42.930;25.178;2022-08-24T06:41:04;20.50;99.90
11559;DHT22;5835;42.930;25.178;2022-08-24T06:43:32;20.70;99.90
11559;DHT22;5835;42.930;25.178;2022-08-24T06:46:00;20.60;99.90
11559;DHT22;5835;42.930;25.178;2022-08-24T06:48:29;20.50;99.90
11559;DHT22;5835;42.930;25.178;2022-08-24T06:50:58;20.50;99.90
11559;DHT22;5835;42.930;25.178;2022-08-24T06:53:26;20.70;99.90
11559;DHT22;5835;42.930;25.178;2022-08-24T06:55:56;20.70;99.90
11559;DHT22;5835;42.930;25.178;2022-08-24T06:58:24;20.70;99.90
11559;DHT22;5835;42.930;25.178;2022-08-24T07:00:53;20.70;99.90
11559;DHT22;5835;42.930;25.178;2022-08-24T07:03:22;20.70;99.90
11559;DHT22;5835;42.930;25.178;2022-08-24T07:05:54;20.80;99.90
11559;DHT22;5835;42.930;25.178;2022-08-24T07:08:22;20.90;99.90
11559;DHT22;5835;42.930;25.178;2022-08-24T07:10:50;21.10;99.90
11559;DHT22;5835;42.930;25.178;2022-08-24T07:13:18;21.10;99.90
11559;DHT22;5835;42.930;25.178;2022-08-24T07:15:46;21.10;99.90
11559;DHT22;5835;42.930;25.178;2022-08-24T07:18:14;21.10;99.90
11559;DHT22;5835;42.930;25.178;2022-08-24T07:20:43;21.00;99.90
11559;DHT22;5835;42.930;25.178;2022-08-24T07:23:12;20.90;99.90
11559;DHT22;5835;42.930;25.178;2022-08-24T07:25:40;20.90;99.90
11559;DHT22;5835;42.930;25.178;2022-08-24T07:28:08;21.00;99.90
11559;DHT22;5835;42.930;25.178;2022-08-24T07:30:37;20.80;99.90
11559;DHT22;5835;42.930;25.178;2022-08-24T07:33:05;20.90;99.90
11559;DHT22;5835;42.930;25.178;2022-08-24T07:35:34;21.10;99.90
11559;DHT22;5835;42.930;25.178;2022-08-24T07:38:03;21.30;99.90
11559;DHT22;5835;42.930;25.178;2022-08-24T07:40:33;21.40;99.90
11559;DHT22;5835;42.930;25.178;2022-08-24T07:43:01;21.50;99.90
11559;DHT22;5835;42.930;25.178;2022-08-24T07:45:29;21.30;99.90
11559;DHT22;5835;42.930;25.178;2022-08-24T07:47:58;21.40;99.90
11559;DHT22;5835;42.930;25.178;2022-08-24T07:50:29;21.50;99.90
11559;DHT22;5835;42.930;25.178;2022-08-24T07:52:57;21.70;99.90
11559;DHT22;5835;42.930;25.178;2022-08-24T07:55:24;21.70;99.90
11559;DHT22;5835;42.930;25.178;2022-08-24T07:57:53;21.70;99.90
11559;DHT22;5835;42.930;25.178;2022-08-24T08:00:21;21.80;99.90
11559;DHT22;5835;42.930;25.178;2022-08-24T08:02:49;21.90;99.90
11559;DHT22;5835;42.930;25.178;2022-08-24T08:05:19;21.80;99.90
11559;DHT22;5835;42.930;25.178;2022-08-24T08:07:47;21.60;99.90
11559;DHT22;5835;42.930;25.178;2022-08-24T08:10:15;21.60;99.90
11559;DHT22;5835;42.930;25.178;2022-08-24T08:12:42;21.70;99.90
11559;DHT22;5835;42.930;25.178;2022-08-24T08:15:11;21.50;99.90
11559;DHT22;5835;42.930;25.178;2022-08-24T08:17:39;21.60;99.90
11559;DHT22;5835;42.930;25.178;2022-08-24T08:20:08;21.70;99.90
11559;DHT22;5835;42.930;25.178;2022-08-24T08:22:36;21.60;99.90
11559;DHT22;5835;42.930;25.178;2022-08-24T08:25:21;21.70;99.90
11559;DHT22;5835;42.930;25.178;2022-08-24T08:27:49;21.80;99.90
11559;DHT22;5835;42.930;25.178;2022-08-24T08:30:18;22.00;99.90
11559;DHT22;5835;42.930;25.178;2022-08-24T08:32:46;22.10;99.90
11559;DHT22;5835;42.930;25.178;2022-08-24T08:35:14;22.10;99.90
11559;DHT22;5835;42.930;25.178;2022-08-24T08:37:41;22.20;99.90
11559;DHT22;5835;42.930;25.178;2022-08-24T08:40:33;22.20;99.90
11559;DHT22;5835;42.930;25.178;2022-08-24T08:43:09;22.40;99.90
11559;DHT22;5835;42.930;25.178;2022-08-24T08:46:01;22.60;99.90
11559;DHT22;5835;42.930;25.178;2022-08-24T08:54:44;22.00;99.90
11559;DHT22;5835;42.930;25.178;2022-08-24T08:57:45;22.20;99.90
11559;DHT22;5835;42.930;25.178;2022-08-24T09:00:17;22.10;99.90
11559;DHT22;5835;42.930;25.178;2022-08-24T09:03:25;22.00;99.90
11559;DHT22;5835;42.930;25.178;2022-08-24T09:06:37;22.10;99.90
11559;DHT22;5835;42.930;25.178;2022-08-24T09:09:24;21.80;99.90
11559;DHT22;5835;42.930;25.178;2022-08-24T09:12:06;22.00;99.90
11559;DHT22;5835;42.930;25.178;2022-08-24T09:15:11;22.00;99.90
11559;DHT22;5835;42.930;25.178;2022-08-24T09:17:55;22.00;99.90
11559;DHT22;5835;42.930;25.178;2022-08-24T09:20:55;21.80;99.90
11559;DHT22;5835;42.930;25.178;2022-08-24T09:23:30;21.80;99.90
11559;DHT22;5835;42.930;25.178;2022-08-24T09:26:03;22.10;99.90
11559;DHT22;5835;42.930;25.178;2022-08-24T09:28:41;22.40;99.90
11559;DHT22;5835;42.930;25.178;2022-08-24T09:31:27;22.30;99.90
11559;DHT22;5835;42.930;25.178;2022-08-24T09:34:07;22.30;99.90
11559;DHT22;5835;42.930;25.178;2022-08-24T09:36:51;22.60;99.90
11559;DHT22;5835;42.930;25.178;2022-08-24T09:39:35;22.10;99.90
11559;DHT22;5835;42.930;25.178;2022-08-24T09:42:32;22.50;99.90
11559;DHT22;5835;42.930;25.178;2022-08-24T09:45:26;23.00;99.90
11559;DHT22;5835;42.930;25.178;2022-08-24T09:48:21;22.80;99.90
11559;DHT22;5835;42.930;25.178;2022-08-24T09:51:24;23.00;99.90
11559;DHT22;5835;42.930;25.178;2022-08-24T09:54:31;23.10;99.90
11559;DHT22;5835;42.930;25.178;2022-08-24T09:57:31;23.10;99.90
11559;DHT22;5835;42.930;25.178;2022-08-24T10:00:08;23.50;99.90
11559;DHT22;5835;42.930;25.178;2022-08-24T10:03:06;23.60;99.90
11559;DHT22;5835;42.930;25.178;2022-08-24T10:05:52;24.00;99.90
11559;DHT22;5835;42.930;25.178;2022-08-24T10:08:34;23.80;99.90
11559;DHT22;5835;42.930;25.178;2022-08-24T10:11:12;24.10;99.90
11559;DHT22;5835;42.930;25.178;2022-08-24T10:13:48;23.90;99.90
11559;DHT22;5835;42.930;25.178;2022-08-24T10:16:26;23.40;99.90
11559;DHT22;5835;42.930;25.178;2022-08-24T10:19:06;23.10;99.90
11559;DHT22;5835;42.930;25.178;2022-08-24T10:21:44;23.50;99.90
11559;DHT22;5835;42.930;25.178;2022-08-24T10:24:39;23.60;99.90
11559;DHT22;5835;42.930;25.178;2022-08-24T10:27:35;24.20;99.90
11559;DHT22;5835;42.930;25.178;2022-08-24T10:30:45;23.80;99.90
11559;DHT22;5835;42.930;25.178;2022-08-24T10:33:20;23.50;99.90
11559;DHT22;5835;42.930;25.178;2022-08-24T10:36:07;23.90;99.90
11559;DHT22;5835;42.930;25.178;2022-08-24T10:38:47;24.10;99.90
11559;DHT22;5835;42.930;25.178;2022-08-24T10:45:15;23.70;99.90
11559;DHT22;5835;42.930;25.178;2022-08-24T10:47:58;23.70;99.90
11559;DHT22;5835;42.930;25.178;2022-08-24T10:50:39;24.10;99.90
11559;DHT22;5835;42.930;25.178;2022-08-24T10:53:31;24.70;99.90
11559;DHT22;5835;42.930;25.178;2022-08-24T10:56:08;24.40;99.90
11559;DHT22;5835;42.930;25.178;2022-08-24T10:58:51;24.60;99.90
11559;DHT22;5835;42.930;25.178;2022-08-24T11:01:28;24.70;99.90
11559;DHT22;5835;42.930;25.178;2022-08-24T11:04:01;24.80;99.90
11559;DHT22;5835;42.930;25.178;2022-08-24T11:06:32;24.40;99.90
11559;DHT22;5835;42.930;25.178;2022-08-24T11:09:04;23.90;99.90
11559;DHT22;5835;42.930;25.178;2022-08-24T11:11:33;24.10;99.90
11559;DHT22;5835;42.930;25.178;2022-08-24T11:14:04;24.60;99.90
11559;DHT22;5835;42.930;25.178;2022-08-24T11:16:37;24.70;99.90
11559;DHT22;5835;42.930;25.178;2022-08-24T11:19:08;25.30;99.90
11559;DHT22;5835;42.930;25.178;2022-08-24T11:21:43;25.40;99.90
11559;DHT22;5835;42.930;25.178;2022-08-24T11:24:23;25.70;99.90
11559;DHT22;5835;42.930;25.178;2022-08-24T11:26:54;25.20;99.90
11559;DHT22;5835;42.930;25.178;2022-08-24T11:29:26;25.30;99.90
11559;DHT22;5835;42.930;25.178;2022-08-24T11:31:58;26.10;99.90
11559;DHT22;5835;42.930;25.178;2022-08-24T11:34:35;25.70;99.90
11559;DHT22;5835;42.930;25.178;2022-08-24T11:37:04;26.50;99.90
11559;DHT22;5835;42.930;25.178;2022-08-24T11:39:34;26.60;99.90
11559;DHT22;5835;42.930;25.178;2022-08-24T11:42:12;26.90;99.90
11559;DHT22;5835;42.930;25.178;2022-08-24T11:44:45;27.20;99.90
11559;DHT22;5835;42.930;25.178;2022-08-24T11:47:47;27.20;99.90
11559;DHT22;5835;42.930;25.178;2022-08-24T11:50:24;27.30;99.90
11559;DHT22;5835;42.930;25.178;2022-08-24T11:53:01;27.80;99.90
11559;DHT22;5835;42.930;25.178;2022-08-24T11:55:34;28.10;99.90
11559;DHT22;5835;42.930;25.178;2022-08-24T11:58:08;28.00;99.90
11559;DHT22;5835;42.930;25.178;2022-08-24T12:00:45;28.30;99.90
11559;DHT22;5835;42.930;25.178;2022-08-24T12:03:36;28.60;99.90
11559;DHT22;5835;42.930;25.178;2022-08-24T12:06:17;28.60;99.90
11559;DHT22;5835;42.930;25.178;2022-08-24T12:08:51;28.30;99.90
11559;DHT22;5835;42.930;25.178;2022-08-24T12:11:31;27.80;99.90
11559;DHT22;5835;42.930;25.178;2022-08-24T12:14:06;27.60;99.90
11559;DHT22;5835;42.930;25.178;2022-08-24T12:16:40;27.70;99.90
11559;DHT22;5835;42.930;25.178;2022-08-24T12:19:17;27.60;99.90
11559;DHT22;5835;42.930;25.178;2022-08-24T12:21:48;27.80;99.90
11559;DHT22;5835;42.930;25.178;2022-08-24T12:24:22;28.00;99.90
11559;DHT22;5835;42.930;25.178;2022-08-24T12:26:55;28.20;99.90
11559;DHT22;5835;42.930;25.178;2022-08-24T12:29:29;28.20;99.90
11559;DHT22;5835;42.930;25.178;2022-08-24T12:32:01;28.10;99.90
11559;DHT22;5835;42.930;25.178;2022-08-24T12:34:39;28.30;99.90
11559;DHT22;5835;42.930;25.178;2022-08-24T12:37:13;28.10;99.90
11559;DHT22;5835;42.930;25.178;2022-08-24T12:39:45;27.50;99.90
11559;DHT22;5835;42.930;25.178;2022-08-24T12:42:18;27.60;99.90
11559;DHT22;5835;42.930;25.178;2022-08-24T12:44:49;27.40;99.90
11559;DHT22;5835;42.930;25.178;2022-08-24T12:47:26;27.40;99.90
11559;DHT22;5835;42.930;25.178;2022-08-24T12:50:02;26.80;99.90
11559;DHT22;5835;42.930;25.178;2022-08-24T12:58:51;28.20;99.90
11559;DHT22;5835;42.930;25.178;2022-08-24T13:01:23;28.20;99.90
11559;DHT22;5835;42.930;25.178;2022-08-24T13:04:09;28.20;99.90
11559;DHT22;5835;42.930;25.178;2022-08-24T13:06:42;28.50;99.90
11559;DHT22;5835;42.930;25.178;2022-08-24T13:09:16;28.50;99.90
11559;DHT22;5835;42.930;25.178;2022-08-24T13:11:52;28.40;99.90
11559;DHT22;5835;42.930;25.178;2022-08-24T13:14:23;28.30;99.90
11559;DHT22;5835;42.930;25.178;2022-08-24T13:17:09;28.40;99.90
11559;DHT22;5835;42.930;25.178;2022-08-24T13:22:59;28.20;99.90
11559;DHT22;5835;42.930;25.178;2022-08-24T13:25:53;28.10;99.90
11559;DHT22;5835;42.930;25.178;2022-08-24T13:28:37;28.20;99.90
11559;DHT22;5835;42.930;25.178;2022-08-24T13:31:23;28.50;99.90
11559;DHT22;5835;42.930;25.178;2022-08-24T13:33:53;29.00;99.90
11559;DHT22;5835;42.930;25.178;2022-08-24T13:36:52;28.50;99.90
11559;DHT22;5835;42.930;25.178;2022-08-24T13:39:54;28.40;99.90
11559;DHT22;5835;42.930;25.178;2022-08-24T13:45:20;28.40;99.90
11559;DHT22;5835;42.930;25.178;2022-08-24T13:48:07;28.80;99.90
11559;DHT22;5835;42.930;25.178;2022-08-24T13:50:42;28.40;99.90
11559;DHT22;5835;42.930;25.178;2022-08-24T13:53:50;27.50;99.90
11559;DHT22;5835;42.930;25.178;2022-08-24T13:56:36;28.20;99.90
11559;DHT22;5835;42.930;25.178;2022-08-24T13:59:09;28.30;99.90
11559;DHT22;5835;42.930;25.178;2022-08-24T14:01:48;27.80;99.90
11559;DHT22;5835;42.930;25.178;2022-08-24T14:04:42;28.50;99.90
11559;DHT22;5835;42.930;25.178;2022-08-24T14:07:18;27.60;99.90
11559;DHT22;5835;42.930;25.178;2022-08-24T14:10:02;27.40;99.90
11559;DHT22;5835;42.930;25.178;2022-08-24T14:12:45;28.40;99.90
11559;DHT22;5835;42.930;25.178;2022-08-24T14:15:22;27.80;99.90
11559;DHT22;5835;42.930;25.178;2022-08-24T14:21:06;27.90;99.90
11559;DHT22;5835;42.930;25.178;2022-08-24T14:23:51;28.00;99.90
11559;DHT22;5835;42.930;25.178;2022-08-24T14:29:36;28.50;99.90
11559;DHT22;5835;42.930;25.178;2022-08-24T14:32:37;28.50;99.90
11559;DHT22;5835;42.930;25.178;2022-08-24T14:35:27;28.70;99.90
11559;DHT22;5835;42.930;25.178;2022-08-24T14:38:10;29.20;99.90
11559;DHT22;5835;42.930;25.178;2022-08-24T14:41:00;29.80;99.90
11559;DHT22;5835;42.930;25.178;2022-08-24T14:43:33;29.80;99.90
11559;DHT22;5835;42.930;25.178;2022-08-24T14:46:20;30.40;99.90
11559;DHT22;5835;42.930;25.178;2022-08-24T14:48:58;28.00;99.90
11559;DHT22;5835;42.930;25.178;2022-08-24T14:51:48;28.30;99.90
11559;DHT22;5835;42.930;25.178;2022-08-24T14:54:26;28.80;99.90
11559;DHT22;5835;42.930;25.178;2022-08-24T14:57:07;29.50;99.90
11559;DHT22;5835;42.930;25.178;2022-08-24T14:59:46;29.10;99.90
11559;DHT22;5835;42.930;25.178;2022-08-24T15:05:22;28.60;99.90
11559;DHT22;5835;42.930;25.178;2022-08-24T15:07:55;28.30;99.90
11559;DHT22;5835;42.930;25.178;2022-08-24T15:10:27;28.70;99.90
11559;DHT22;5835;42.930;25.178;2022-08-24T15:12:59;28.80;99.90
11559;DHT22;5835;42.930;25.178;2022-08-24T15:15:30;28.20;99.90
11559;DHT22;5835;42.930;25.178;2022-08-24T15:18:03;28.60;99.90
11559;DHT22;5835;42.930;25.178;2022-08-24T15:20:46;29.60;99.90
11559;DHT22;5835;42.930;25.178;2022-08-24T15:23:24;29.30;99.90
11559;DHT22;5835;42.930;25.178;2022-08-24T15:25:56;28.70;99.90
11559;DHT22;5835;42.930;25.178;2022-08-24T15:28:27;28.80;99.90
11559;DHT22;5835;42.930;25.178;2022-08-24T15:30:57;29.20;99.90
11559;DHT22;5835;42.930;25.178;2022-08-24T15:33:28;29.60;99.90
11559;DHT22;5835;42.930;25.178;2022-08-24T15:36:07;29.40;99.90
11559;DHT22;5835;42.930;25.178;2022-08-24T15:38:36;30.00;99.90
11559;DHT22;5835;42.930;25.178;2022-08-24T15:41:07;29.10;99.90
11559;DHT22;5835;42.930;25.178;2022-08-24T15:43:41;28.30;99.90
11559;DHT22;5835;42.930;25.178;2022-08-24T15:46:10;28.50;99.90
11559;DHT22;5835;42.930;25.178;2022-08-24T15:48:41;27.90;99.90
11559;DHT22;5835;42.930;25.178;2022-08-24T15:51:30;28.30;99.90
11559;DHT22;5835;42.930;25.178;2022-08-24T15:54:14;28.10;99.90
11559;DHT22;5835;42.930;25.178;2022-08-24T15:56:45;28.20;99.90
11559;DHT22;5835;42.930;25.178;2022-08-24T15:59:24;28.10;99.90
11559;DHT22;5835;42.930;25.178;2022-08-24T16:01:58;27.60;99.90
11559;DHT22;5835;42.930;25.178;2022-08-24T16:04:46;27.80;99.90
11559;DHT22;5835;42.930;25.178;2022-08-24T16:07:21;27.60;99.90
11559;DHT22;5835;42.930;25.178;2022-08-24T16:10:01;27.50;99.90
11559;DHT22;5835;42.930;25.178;2022-08-24T16:12:30;27.10;99.90
11559;DHT22;5835;42.930;25.178;2022-08-24T16:15:13;26.80;99.90
11559;DHT22;5835;42.930;25.178;2022-08-24T16:17:45;26.60;99.90
11559;DHT22;5835;42.930;25.178;2022-08-24T16:20:29;26.40;99.90
11559;DHT22;5835;42.930;25.178;2022-08-24T16:23:02;26.30;1.00
11559;DHT22;5835;42.930;25.178;2022-08-24T16:25:32;26.20;1.00
11559;DHT22;5835;42.930;25.178;2022-08-24T16:28:06;25.90;99.90
11559;DHT22;5835;42.930;25.178;2022-08-24T16:30:44;25.90;99.90
11559;DHT22;5835;42.930;25.178;2022-08-24T16:33:42;25.70;99.90
11559;DHT22;5835;42.930;25.178;2022-08-24T16:36:14;25.60;28.30
11559;DHT22;5835;42.930;25.178;2022-08-24T16:38:46;25.60;99.90
11559;DHT22;5835;42.930;25.178;2022-08-24T16:41:16;25.60;99.90
11559;DHT22;5835;42.930;25.178;2022-08-24T16:43:44;25.50;1.00